Durcal, Spain
Current Conditions -  °F | °C
As of 7:30 AM on Wednesday 26 Nov 2014 (Local Time) from LEGR Reporting Station
Broken Clouds Broken Clouds  
Wind Chill: 50°   Ceiling: 5500
Heat Index: 50°   Visibility: 6mi
Dew Point: 48°   Wind: 0mph
Humidity: 94%   Direction: NA
Pressure: 29.97"   Gusts: NA
Location:  36.99°N, 3.57°W
Report Text: LEGR 260630Z 00000KT 9999 FEW025 BKN055 10/09 Q1015
Loading
Personal Weather Stations






























Interactive Weather Map New forecast layout! Learn more

10-Day Weather Forecast

Advertisements
Track Severe Weather on mobile